Suzuka, Japan
Current Conditions -  °F | °C
As of 10:00 PM on Thursday 30 Oct 2014 (Local Time) from RJGG Reporting Station
Broken Clouds Broken Clouds  
Wind Chill: 17°   Ceiling: 3000
Heat Index: 17°   Visibility: 6mi
Dew Point: 13°   Wind: 7mph
Humidity: 77%   Direction: 10°N
Pressure: 30.27"   Gusts: NA
Location:  34.88°N, 136.58°E
Report Text: RJGG 301300Z 01006KT 9999 FEW020 BKN030 17/13 Q1025 NOSIG
Loading
Personal Weather Stations






























Interactive Weather Map
Tropical Storm Tracking
New forecast layout! Learn more

10-Day Weather Forecast

Advertisements
Track Severe Weather on mobile